Time;durP1;ratioP1;P1;durP2;ratioP2;P2;SDS_P1;SDS_P2;PMS_P1;PMS_P2;Temp;Humidity;BMP_temperature;BMP_pressure;BME280_temperature;BME280_humidity;BME280_pressure;Samples;Min_cycle;Max_cycle;Signal;HPM_P1;HPM_P2
2022/02/08 00:01:24;;;;;;;15.70;3.72;;;7.30;99.90;;;;;;5060789;28;20031;-87
2022/02/08 00:03:50;;;;;;;17.67;4.68;;;7.30;99.90;;;;;;5072101;28;20452;-84
2022/02/08 00:08:44;;;;;;;23.77;4.68;;;7.30;99.90;;;;;;5088312;28;20461;-85
2022/02/08 00:11:10;;;;;;;17.73;4.88;;;7.30;99.90;;;;;;5093407;28;20035;-85
2022/02/08 00:13:36;;;;;;;23.27;6.13;;;7.30;99.90;;;;;;5069390;28;20350;-85
2022/02/08 00:16:05;;;;;;;24.20;5.28;;;7.30;99.90;;;;;;5076426;28;20024;-85
2022/02/08 00:18:30;;;;;;;19.17;5.30;;;7.40;99.90;;;;;;5072799;28;20494;-87
2022/02/08 00:20:56;;;;;;;20.73;5.22;;;7.40;99.90;;;;;;5058659;28;20028;-85
2022/02/08 00:23:22;;;;;;;23.23;5.35;;;7.30;99.90;;;;;;5043731;28;20026;-85
2022/02/08 00:25:47;;;;;;;20.48;5.82;;;7.30;99.90;;;;;;5055374;28;20123;-85
2022/02/08 00:28:13;;;;;;;18.50;6.18;;;7.30;99.90;;;;;;5076474;28;20028;-85
2022/02/08 00:30:39;;;;;;;20.08;5.65;;;7.30;99.90;;;;;;5059932;28;20089;-84
2022/02/08 00:33:05;;;;;;;20.88;5.60;;;7.30;99.90;;;;;;5073937;28;20036;-84
2022/02/08 00:35:30;;;;;;;23.70;6.93;;;7.30;99.90;;;;;;5059223;28;20020;-86
2022/02/08 00:37:57;;;;;;;20.02;6.15;;;7.30;99.90;;;;;;5060156;28;20092;-84
2022/02/08 00:40:25;;;;;;;21.92;6.38;;;7.30;99.90;;;;;;5071346;28;20055;-84
2022/02/08 00:42:51;;;;;;;21.88;5.90;;;7.30;99.90;;;;;;5070593;28;20112;-85
2022/02/08 00:47:55;;;;;;;19.50;6.00;;;7.30;99.90;;;;;;5091015;28;20047;-85
2022/02/08 00:50:21;;;;;;;22.00;6.03;;;7.30;99.90;;;;;;5073199;28;20074;-85
2022/02/08 00:52:47;;;;;;;19.98;5.85;;;7.30;99.90;;;;;;5094274;28;20024;-84
2022/02/08 00:55:13;;;;;;;25.90;6.22;;;7.30;99.90;;;;;;5076059;28;20027;-85
2022/02/08 00:57:39;;;;;;;20.73;6.47;;;7.30;99.90;;;;;;5076544;28;20032;-86
2022/02/08 01:00:07;;;;;;;27.52;6.72;;;7.30;99.90;;;;;;5073259;28;20017;-85
2022/02/08 01:02:33;;;;;;;22.35;6.78;;;7.30;99.90;;;;;;5066320;28;20098;-84
2022/02/08 01:05:01;;;;;;;19.27;6.70;;;7.30;99.90;;;;;;5037297;28;20070;-86
2022/02/08 01:07:27;;;;;;;23.92;7.25;;;7.30;99.90;;;;;;5073988;28;20032;-85
2022/02/08 01:09:58;;;;;;;21.90;7.22;;;7.30;99.90;;;;;;5043371;28;20085;-85
2022/02/08 01:12:25;;;;;;;23.50;7.80;;;7.30;99.90;;;;;;5052705;28;20115;-85
2022/02/08 01:14:53;;;;;;;25.67;8.32;;;7.30;99.90;;;;;;5070817;28;20717;-84
2022/02/08 01:17:21;;;;;;;24.65;9.07;;;7.30;99.90;;;;;;5075977;28;20027;-85
2022/02/08 01:19:57;;;;;;;22.73;9.30;;;7.30;99.90;;;;;;5053621;28;20031;-84
2022/02/08 01:22:23;;;;;;;24.67;8.63;;;7.30;99.90;;;;;;5059716;28;20468;-85
2022/02/08 01:24:50;;;;;;;26.85;10.50;;;7.30;99.90;;;;;;5055604;28;20059;-85
2022/02/08 01:27:19;;;;;;;25.33;8.85;;;7.30;99.90;;;;;;5056364;28;20036;-84
2022/02/08 01:33:23;;;;;;;24.23;10.93;;;7.40;99.90;;;;;;5077061;28;20636;-84
2022/02/08 01:35:26;;;;;;;27.45;10.43;;;7.30;99.90;;;;;;5071127;28;20029;-85
2022/02/08 01:38:08;;;;;;;28.70;11.65;;;7.30;99.90;;;;;;5062156;28;20039;-84
2022/02/08 01:46:07;;;;;;;31.23;13.57;;;7.40;99.90;;;;;;5095247;28;20059;-85
2022/02/08 01:51:01;;;;;;;29.73;15.52;;;7.40;99.90;;;;;;5077303;28;20231;-85
2022/02/08 01:53:27;;;;;;;35.20;13.70;;;7.50;99.90;;;;;;5060079;28;20383;-84
2022/02/08 01:55:52;;;;;;;35.35;14.70;;;7.50;99.90;;;;;;5059564;28;20046;-84
2022/02/08 01:58:20;;;;;;;27.27;13.80;;;7.50;99.90;;;;;;5064348;28;20028;-85
2022/02/08 02:00:46;;;;;;;30.63;15.43;;;7.50;99.90;;;;;;5055178;28;20099;-85
2022/02/08 02:03:12;;;;;;;25.10;15.68;;;7.50;99.90;;;;;;5094246;28;20038;-84
2022/02/08 02:05:37;;;;;;;29.67;16.35;;;7.60;99.90;;;;;;5060941;28;20035;-84
2022/02/08 02:08:03;;;;;;;26.33;15.07;;;7.60;99.90;;;;;;5059305;28;20032;-85
2022/02/08 02:10:29;;;;;;;39.15;19.52;;;7.60;99.90;;;;;;5076973;28;20032;-85
2022/02/08 02:12:59;;;;;;;34.20;18.30;;;7.60;99.90;;;;;;5090479;28;20026;-86
2022/02/08 02:15:25;;;;;;;34.35;18.92;;;7.60;99.90;;;;;;5116361;28;20016;-86
2022/02/08 02:17:52;;;;;;;30.73;17.98;;;7.60;99.90;;;;;;5083561;28;20013;-84
2022/02/08 02:20:18;;;;;;;34.60;18.80;;;7.70;99.90;;;;;;5090064;28;20035;-83
2022/02/08 02:22:45;;;;;;;36.28;19.55;;;7.60;99.90;;;;;;5074957;28;20047;-84
2022/02/08 02:25:21;;;;;;;35.35;20.40;;;7.70;99.90;;;;;;5080536;28;20020;-83
2022/02/08 02:27:48;;;;;;;38.85;21.30;;;7.70;99.90;;;;;;5083237;28;20376;-85
2022/02/08 02:30:15;;;;;;;34.55;20.20;;;7.70;99.90;;;;;;5081579;28;20020;-85
2022/02/08 02:32:41;;;;;;;41.13;22.10;;;7.70;99.90;;;;;;5079607;28;20051;-85
2022/02/08 02:35:07;;;;;;;36.80;21.85;;;7.70;99.90;;;;;;5068632;28;20039;-85
2022/02/08 02:37:33;;;;;;;46.20;23.17;;;7.80;99.90;;;;;;5063689;28;20019;-84
2022/02/08 02:39:59;;;;;;;43.63;22.90;;;7.80;99.90;;;;;;5094667;28;20032;-86
2022/02/08 02:42:27;;;;;;;38.63;24.02;;;7.80;99.90;;;;;;5073301;28;20036;-85
2022/02/08 02:44:53;;;;;;;45.83;24.70;;;7.80;99.90;;;;;;5058667;28;20468;-84
2022/02/08 02:47:19;;;;;;;42.08;25.00;;;7.90;99.90;;;;;;5058886;28;20081;-85
2022/02/08 02:49:45;;;;;;;46.60;25.27;;;7.90;99.90;;;;;;5059388;28;20380;-84
2022/02/08 02:52:10;;;;;;;47.50;26.00;;;7.90;99.90;;;;;;5052639;28;20020;-84
2022/02/08 02:54:36;;;;;;;44.33;25.10;;;8.00;99.90;;;;;;5080616;28;20073;-84
2022/02/08 02:57:03;;;;;;;44.90;27.17;;;8.00;99.90;;;;;;5080525;28;20105;-84
2022/02/08 02:59:32;;;;;;;47.70;27.10;;;8.00;99.90;;;;;;5081992;28;20019;-85
2022/02/08 03:20:50;;;;;;;49.97;28.95;;;8.20;99.90;;;;;;5106243;28;20032;-84
2022/02/08 03:23:16;;;;;;;50.67;28.38;;;8.20;99.90;;;;;;5094478;28;20043;-85
2022/02/08 03:25:42;;;;;;;50.25;29.40;;;8.20;99.90;;;;;;5058777;28;20077;-84
2022/02/08 03:28:08;;;;;;;48.78;27.83;;;8.20;99.90;;;;;;5078268;28;20115;-84
2022/02/08 03:30:34;;;;;;;54.42;30.98;;;8.20;99.90;;;;;;5055386;28;20131;-84
2022/02/08 03:33:00;;;;;;;52.85;31.15;;;8.30;99.90;;;;;;5059500;28;20090;-85
2022/02/08 03:35:26;;;;;;;46.65;28.27;;;8.30;99.90;;;;;;5059237;28;20043;-85
2022/02/08 03:38:04;;;;;;;58.55;30.65;;;8.30;99.90;;;;;;5058343;28;20123;-85
2022/02/08 03:40:44;;;;;;;49.28;29.05;;;8.30;99.90;;;;;;5063664;28;20071;-85
2022/02/08 03:45:55;;;;;;;48.50;26.92;;;8.40;99.90;;;;;;5096882;28;20032;-85
2022/02/08 03:48:24;;;;;;;49.17;28.63;;;8.50;99.90;;;;;;5078879;28;20206;-86
2022/02/08 03:50:55;;;;;;;45.10;26.77;;;8.50;99.90;;;;;;5070515;28;20388;-85
2022/02/08 03:53:21;;;;;;;;;;;8.50;99.90;;;;;;5079102;28;20065;-85
2022/02/08 03:55:48;;;;;;;44.00;25.45;;;8.60;99.90;;;;;;5070752;28;19904;-84
2022/02/08 03:58:14;;;;;;;43.72;23.63;;;8.60;99.90;;;;;;5078241;28;20077;-84
2022/02/08 04:03:17;;;;;;;40.85;22.60;;;8.60;99.90;;;;;;5096252;28;20491;-84
2022/02/08 04:05:47;;;;;;;38.92;23.77;;;8.60;99.90;;;;;;5069965;28;20016;-84
2022/02/08 04:08:15;;;;;;;41.95;22.77;;;8.70;99.90;;;;;;5062575;28;20032;-85
2022/02/08 04:10:43;;;;;;;42.13;23.30;;;8.70;99.90;;;;;;5052788;28;20033;-84
2022/02/08 04:16:13;;;;;;;45.42;23.15;;;8.80;99.90;;;;;;5065730;28;20032;-84
2022/02/08 04:18:56;;;;;;;38.55;21.88;;;8.90;99.90;;;;;;5077148;28;20028;-84
2022/02/08 04:32:41;;;;;;;34.47;20.17;;;8.90;99.90;;;;;;5078755;28;20123;-85
2022/02/08 04:38:10;;;;;;;37.58;21.92;;;9.00;99.90;;;;;;5075676;28;20043;-84
2022/02/08 04:41:01;;;;;;;34.05;21.05;;;9.00;99.90;;;;;;5036132;28;20055;-85
2022/02/08 04:43:35;;;;;;;34.22;20.65;;;9.00;99.90;;;;;;5072424;28;20032;-84
2022/02/08 04:51:10;;;;;;;31.77;20.52;;;9.10;99.90;;;;;;5047982;28;20036;-85
2022/02/08 04:53:41;;;;;;;42.78;20.70;;;9.10;99.90;;;;;;5055203;28;20074;-86
2022/02/08 04:56:22;;;;;;;31.20;19.77;;;9.10;99.90;;;;;;5052302;28;20043;-85
2022/02/08 04:58:58;;;;;;;36.53;20.73;;;9.10;99.90;;;;;;5045981;28;20028;-85
2022/02/08 05:01:42;;;;;;;33.67;19.27;;;9.20;99.90;;;;;;5058056;28;20032;-87
2022/02/08 05:44:41;;;;;;;24.00;15.18;;;9.10;99.90;;;;;;5043884;28;20093;-87
2022/02/08 05:47:08;;;;;;;24.67;15.43;;;9.20;99.90;;;;;;5023653;28;20072;-86
2022/02/08 05:54:42;;;;;;;24.90;15.45;;;9.20;99.90;;;;;;5074718;28;20064;-85
2022/02/08 05:57:09;;;;;;;25.77;15.35;;;9.20;99.90;;;;;;5074776;28;20150;-86
2022/02/08 05:59:36;;;;;;;21.17;14.57;;;9.20;99.90;;;;;;5056386;28;20024;-84
2022/02/08 06:02:03;;;;;;;26.23;15.82;;;9.20;99.90;;;;;;5040103;28;20107;-85
2022/02/08 06:04:29;;;;;;;24.90;14.38;;;9.20;99.90;;;;;;5056446;28;20021;-86
2022/02/08 06:06:56;;;;;;;23.65;14.88;;;9.30;99.90;;;;;;5056004;28;20024;-85
2022/02/08 06:09:22;;;;;;;24.92;15.35;;;9.20;99.90;;;;;;5056193;28;20033;-86
2022/02/08 06:11:47;;;;;;;24.20;15.25;;;9.30;99.90;;;;;;5057043;28;20103;-84
2022/02/08 06:14:13;;;;;;;26.65;14.48;;;9.30;99.90;;;;;;5039868;28;20458;-86
2022/02/08 06:16:39;;;;;;;25.05;14.07;;;9.30;99.90;;;;;;5022996;28;20028;-85
2022/02/08 06:19:05;;;;;;;22.98;15.30;;;9.30;99.90;;;;;;5024601;28;20024;-85
2022/02/08 06:21:32;;;;;;;26.70;15.68;;;9.30;99.90;;;;;;5055685;28;20033;-86
2022/02/08 06:24:02;;;;;;;24.42;15.02;;;9.30;99.90;;;;;;5040406;28;20024;-85
2022/02/08 06:26:28;;;;;;;22.30;14.73;;;9.30;99.90;;;;;;5056812;28;20472;-85
2022/02/08 06:29:05;;;;;;;23.77;15.82;;;9.30;99.90;;;;;;5057829;28;20073;-85
2022/02/08 06:31:31;;;;;;;22.42;15.10;;;9.30;99.90;;;;;;5026266;28;20456;-85
2022/02/08 06:33:56;;;;;;;25.35;15.00;;;9.30;99.90;;;;;;5056263;28;20052;-86
2022/02/08 06:36:22;;;;;;;24.02;15.52;;;9.30;99.90;;;;;;5039434;28;20032;-85
2022/02/08 06:38:48;;;;;;;25.30;13.95;;;9.30;99.90;;;;;;5055924;28;20468;-86
2022/02/08 06:41:14;;;;;;;27.55;16.48;;;9.30;99.90;;;;;;5055737;28;20033;-85
2022/02/08 06:43:39;;;;;;;23.30;14.88;;;9.20;99.90;;;;;;5055805;28;20040;-85
2022/02/08 06:46:05;;;;;;;21.38;14.68;;;9.20;99.90;;;;;;5039016;28;20392;-86
2022/02/08 06:48:31;;;;;;;24.05;16.45;;;9.20;99.90;;;;;;5055114;28;20124;-86
2022/02/08 06:50:57;;;;;;;30.00;16.98;;;9.20;99.90;;;;;;5056138;28;20062;-86
2022/02/08 06:53:23;;;;;;;30.92;16.80;;;9.20;99.90;;;;;;5022939;28;20029;-86
2022/02/08 06:55:50;;;;;;;23.45;15.10;;;9.20;99.90;;;;;;5055928;28;20355;-86
2022/02/08 06:58:16;;;;;;;26.25;17.05;;;9.20;99.90;;;;;;5055435;28;20493;-86
2022/02/08 07:00:45;;;;;;;26.50;16.25;;;9.20;99.90;;;;;;5055391;28;20078;-86
2022/02/08 07:03:16;;;;;;;23.80;16.27;;;9.20;99.90;;;;;;5055463;28;20116;-86
2022/02/08 07:05:43;;;;;;;29.95;15.93;;;9.20;99.90;;;;;;5055565;28;20024;-85
2022/02/08 07:08:09;;;;;;;28.67;17.13;;;9.20;99.90;;;;;;5055773;28;20460;-86
2022/02/08 07:10:35;;;;;;;37.33;17.73;;;9.20;99.90;;;;;;5054866;28;20035;-86
2022/02/08 07:13:02;;;;;;;29.08;16.67;;;9.20;99.90;;;;;;5055375;28;20101;-85
2022/02/08 07:15:28;;;;;;;29.75;16.58;;;9.20;99.90;;;;;;5038822;28;20028;-86
2022/02/08 07:17:56;;;;;;;28.83;16.63;;;9.20;99.90;;;;;;5073175;28;20100;-85
2022/02/08 07:20:21;;;;;;;27.23;15.93;;;9.20;99.90;;;;;;5055089;28;20028;-86
2022/02/08 07:22:47;;;;;;;29.30;16.90;;;9.20;99.90;;;;;;5055250;28;20392;-85
2022/02/08 07:25:15;;;;;;;31.38;16.80;;;9.20;99.90;;;;;;5038618;28;20032;-85
2022/02/08 07:27:41;;;;;;;25.27;15.73;;;9.20;99.90;;;;;;5054453;28;20032;-85
2022/02/08 07:30:12;;;;;;;28.35;16.27;;;9.20;99.90;;;;;;5073198;28;20028;-85
2022/02/08 07:32:40;;;;;;;28.27;17.27;;;9.20;99.90;;;;;;5038995;28;20028;-85
2022/02/08 07:35:20;;;;;;;29.30;17.65;;;9.20;99.90;;;;;;5073165;28;20469;-85
2022/02/08 07:43:02;;;;;;;23.77;15.82;;;9.30;99.90;;;;;;5053083;28;20049;-86
2022/02/08 07:45:27;;;;;;;29.63;16.90;;;9.30;99.90;;;;;;5046529;28;20366;-86
2022/02/08 07:47:54;;;;;;;27.52;16.10;;;9.30;99.90;;;;;;5053528;28;20039;-86
2022/02/08 07:50:20;;;;;;;28.15;14.40;;;9.30;99.90;;;;;;5054079;28;20078;-86
2022/02/08 07:52:49;;;;;;;25.48;14.45;;;9.30;99.90;;;;;;5054715;28;20024;-86
2022/02/08 07:55:15;;;;;;;26.70;14.65;;;9.30;99.90;;;;;;5072984;28;20021;-84
2022/02/08 07:57:40;;;;;;;20.33;12.63;;;9.20;99.90;;;;;;5054948;28;20070;-85
2022/02/08 08:00:10;;;;;;;21.25;12.27;;;9.30;99.90;;;;;;5055127;28;20376;-86
2022/02/08 08:02:37;;;;;;;26.88;13.95;;;9.30;99.90;;;;;;5054569;28;20488;-85
2022/02/08 08:05:04;;;;;;;23.58;11.07;;;9.30;99.90;;;;;;5038427;28;20067;-87
2022/02/08 08:07:30;;;;;;;17.83;10.35;;;9.30;99.90;;;;;;5054006;28;20092;-86
2022/02/08 08:09:56;;;;;;;21.90;10.68;;;9.30;99.90;;;;;;5054358;28;20119;-87
2022/02/08 08:12:24;;;;;;;20.58;11.30;;;9.30;99.90;;;;;;5054969;28;20411;-89
2022/02/08 08:14:58;;;;;;;20.33;11.40;;;9.30;99.90;;;;;;5056938;28;20067;-87
2022/02/08 08:19:58;;;;;;;21.48;12.23;;;9.40;99.90;;;;;;5076397;28;20067;-86
2022/02/08 08:22:23;;;;;;;32.38;13.57;;;9.40;99.90;;;;;;5038695;28;20377;-86
2022/02/08 08:24:49;;;;;;;23.42;14.30;;;9.30;99.90;;;;;;5076067;28;20091;-86
2022/02/08 08:27:16;;;;;;;20.42;13.05;;;9.30;99.90;;;;;;5074282;28;20516;-86
2022/02/08 08:29:42;;;;;;;24.42;13.63;;;9.40;99.90;;;;;;5058050;28;20548;-85
2022/02/08 08:32:08;;;;;;;25.77;14.77;;;9.40;99.90;;;;;;5041437;28;20414;-86
2022/02/08 08:34:36;;;;;;;22.08;12.57;;;9.40;99.90;;;;;;5058097;28;20032;-86
2022/02/08 08:37:04;;;;;;;26.00;13.02;;;9.40;99.90;;;;;;5058295;28;20025;-85
2022/02/08 08:39:45;;;;;;;28.55;14.15;;;9.40;99.90;;;;;;5076192;28;20446;-89
2022/02/08 08:42:24;;;;;;;24.73;12.57;;;9.40;99.90;;;;;;5058966;28;20032;-85
2022/02/08 08:50:15;;;;;;;20.42;9.68;;;9.50;99.90;;;;;;5075696;28;20496;-86
2022/02/08 08:52:44;;;;;;;33.72;10.57;;;9.60;99.90;;;;;;5069696;28;20090;-85
2022/02/08 08:55:11;;;;;;;19.55;8.52;;;9.60;99.90;;;;;;5051924;28;20119;-86
2022/02/08 08:57:37;;;;;;;19.90;9.27;;;9.60;99.90;;;;;;5053901;28;20041;-86
2022/02/08 09:00:06;;;;;;;17.08;8.32;;;9.60;99.90;;;;;;5054019;28;20017;-86
2022/02/08 09:02:31;;;;;;;18.73;7.30;;;9.70;99.90;;;;;;5054070;28;20025;-85
2022/02/08 09:04:57;;;;;;;27.70;8.80;;;9.60;99.90;;;;;;5054198;28;20361;-85
2022/02/08 09:07:24;;;;;;;17.13;6.85;;;9.70;99.90;;;;;;5054088;28;20032;-86
2022/02/08 09:09:56;;;;;;;17.75;6.18;;;9.70;99.90;;;;;;5037513;28;20384;-85
2022/02/08 09:26:09;;;;;;;18.65;3.83;;;9.90;99.90;;;;;;5043394;28;20035;-86
2022/02/08 09:28:21;;;;;;;14.80;3.83;;;10.00;99.90;;;;;;5036787;28;20040;-85
2022/02/08 09:30:55;;;;;;;11.50;2.45;;;10.00;99.90;;;;;;5040195;28;20370;-86
2022/02/08 09:33:24;;;;;;;10.82;2.50;;;10.10;99.90;;;;;;5033611;28;20025;-86
2022/02/08 09:35:50;;;;;;;13.48;3.15;;;10.10;99.90;;;;;;5045500;28;20020;-88
2022/02/08 09:38:17;;;;;;;17.48;2.22;;;10.20;99.90;;;;;;5036300;28;20040;-86
2022/02/08 09:40:44;;;;;;;11.73;2.50;;;10.20;99.90;;;;;;5044952;28;20107;-85
2022/02/08 09:43:14;;;;;;;13.38;2.28;;;10.20;99.90;;;;;;5053277;28;20075;-87
2022/02/08 09:45:49;;;;;;;14.47;3.13;;;10.20;99.90;;;;;;5053009;28;20023;-87
2022/02/08 09:48:26;;;;;;;22.10;4.15;;;10.30;99.90;;;;;;5054762;28;20031;-87
2022/02/08 09:50:52;;;;;;;13.63;3.22;;;10.30;99.90;;;;;;5074122;28;20056;-86
2022/02/08 09:53:31;;;;;;;24.45;6.30;;;10.40;99.90;;;;;;5057127;28;20027;-86
2022/02/08 09:55:59;;;;;;;20.08;3.10;;;10.40;99.90;;;;;;5074341;28;20074;-86
2022/02/08 09:58:25;;;;;;;10.48;1.88;;;10.50;99.90;;;;;;5056325;28;20480;-86
2022/02/08 10:01:05;;;;;;;13.10;3.45;;;10.50;99.90;;;;;;5056140;28;20036;-86
2022/02/08 10:03:31;;;;;;;10.43;2.20;;;10.50;99.90;;;;;;5056482;28;20031;-85
2022/02/08 10:05:57;;;;;;;10.60;1.77;;;10.50;99.90;;;;;;5056358;28;20017;-85
2022/02/08 10:08:23;;;;;;;8.75;1.95;;;10.60;99.90;;;;;;5056194;28;20055;-86
2022/02/08 10:10:50;;;;;;;10.98;1.73;;;10.60;99.90;;;;;;5056115;28;20068;-86
2022/02/08 10:24:05;;;;;;;12.15;2.75;;;10.80;99.90;;;;;;5073410;28;20036;-86
2022/02/08 10:29:17;;;;;;;15.38;2.90;;;10.90;99.90;;;;;;5079411;28;20039;-86
2022/02/08 10:40:02;;;;;;;15.57;2.65;;;11.00;99.90;;;;;;5073599;28;20079;-86
2022/02/08 10:42:29;;;;;;;12.50;2.45;;;11.00;99.90;;;;;;5055804;28;20424;-86
2022/02/08 10:44:59;;;;;;;13.15;2.45;;;11.00;99.90;;;;;;5040063;28;20028;-90
2022/02/08 10:47:36;;;;;;;9.87;2.27;;;11.00;99.90;;;;;;5055702;28;20028;-86
2022/02/08 10:50:04;;;;;;;9.52;1.88;;;11.00;99.90;;;;;;5055351;28;20032;-85
2022/02/08 10:52:30;;;;;;;11.80;1.50;;;11.00;99.90;;;;;;5022863;28;20047;-86
2022/02/08 10:55:03;;;;;;;11.30;1.75;;;11.10;99.90;;;;;;5039035;28;20094;-86
2022/02/08 10:57:39;;;;;;;9.82;1.77;;;11.10;99.90;;;;;;5040094;28;20464;-86
2022/02/08 11:00:06;;;;;;;9.85;1.88;;;11.10;99.90;;;;;;5056931;28;20029;-86
2022/02/08 11:02:43;;;;;;;11.98;2.05;;;11.00;99.90;;;;;;5038236;28;20036;-86
2022/02/08 11:05:35;;;;;;;10.02;2.40;;;11.10;99.90;;;;;;5040007;28;20036;-85
2022/02/08 11:13:47;;;;;;;7.18;1.50;;;11.10;99.90;;;;;;5054071;28;20040;-86
2022/02/08 11:16:46;;;;;;;10.18;1.73;;;11.20;99.90;;;;;;5061319;28;20046;-87
2022/02/08 11:19:28;;;;;;;5.53;1.30;;;11.20;99.90;;;;;;5075562;28;20032;-87
2022/02/08 11:22:01;;;;;;;;;;;11.20;99.90;;;;;;5063615;28;20115;-86
2022/02/08 11:24:41;;;;;;;7.93;1.50;;;11.30;99.90;;;;;;5076616;28;19908;-91
2022/02/08 11:27:15;;;;;;;8.88;1.92;;;11.30;99.90;;;;;;5077584;28;20032;-87
2022/02/08 11:30:01;;;;;;;7.75;1.95;;;11.30;99.90;;;;;;5075640;28;20073;-87
2022/02/08 11:33:11;;;;;;;17.00;2.85;;;11.40;99.90;;;;;;5059517;28;20519;-87
2022/02/08 11:44:54;;;;;;;15.88;3.63;;;11.40;99.90;;;;;;5093497;28;20043;-86
2022/02/08 11:47:10;;;;;;;15.13;3.75;;;11.40;99.90;;;;;;5074927;28;20431;-86
2022/02/08 11:53:12;;;;;;;22.40;3.75;;;11.50;99.90;;;;;;5097099;28;20032;-85
2022/02/08 11:55:43;;;;;;;5.80;1.98;;;11.50;99.90;;;;;;5088225;28;20468;-86
2022/02/08 11:58:27;;;;;;;10.93;3.25;;;11.60;99.90;;;;;;5080247;28;20034;-86
2022/02/08 12:01:05;;;;;;;8.85;2.10;;;11.60;99.90;;;;;;5097130;28;20452;-86
2022/02/08 12:06:47;;;;;;;16.23;2.80;;;11.60;99.90;;;;;;5079447;28;20032;-87
2022/02/08 12:09:23;;;;;;;14.88;2.90;;;11.70;99.90;;;;;;5096079;28;20114;-86
2022/02/08 12:31:30;;;;;;;9.23;1.58;;;11.80;99.90;;;;;;5076378;28;20097;-87
2022/02/08 12:36:43;;;;;;;14.48;2.00;;;11.80;99.90;;;;;;5076512;28;20177;-86
2022/02/08 12:51:09;;;;;;;7.40;1.60;;;11.90;99.90;;;;;;5076248;28;20070;-87
2022/02/08 12:56:32;;;;;;;12.18;2.17;;;12.00;99.90;;;;;;5077410;28;20078;-86
2022/02/08 14:02:05;;;;;;;7.65;1.60;;;12.00;99.90;;;;;;5049614;28;20468;-87
2022/02/08 14:08:02;;;;;;;6.53;1.20;;;12.00;99.90;;;;;;5094474;28;20357;-86
2022/02/08 14:10:18;;;;;;;8.63;1.58;;;12.00;99.90;;;;;;5074881;28;20044;-86
2022/02/08 14:23:39;;;;;;;10.07;3.50;;;12.10;99.90;;;;;;5069665;28;20074;-87
2022/02/08 14:31:42;;;;;;;9.07;1.80;;;12.10;99.90;;;;;;5078734;28;20514;-86
2022/02/08 15:08:59;;;;;;;4.93;1.23;;;12.10;99.90;;;;;;5078168;28;20533;-85
2022/02/08 15:11:33;;;;;;;4.22;1.02;;;12.10;99.90;;;;;;5075072;28;20020;-85
2022/02/08 15:14:00;;;;;;;4.40;1.02;;;12.10;99.90;;;;;;5093558;28;20020;-86
2022/02/08 15:16:30;;;;;;;6.50;1.05;;;12.10;99.90;;;;;;5058687;28;20398;-85
2022/02/08 15:18:56;;;;;;;7.77;2.17;;;12.00;99.90;;;;;;5059378;28;20028;-85
2022/02/08 15:21:34;;;;;;;6.70;1.27;;;12.10;99.90;;;;;;5075226;28;20028;-85
2022/02/08 15:24:03;;;;;;;5.05;1.10;;;12.00;99.90;;;;;;5078968;28;20016;-85
2022/02/08 15:26:29;;;;;;;6.65;1.38;;;12.10;99.90;;;;;;5079675;28;20035;-84
2022/02/08 15:29:01;;;;;;;8.10;1.48;;;12.00;99.90;;;;;;5097407;28;20039;-85
2022/02/08 15:31:26;;;;;;;7.10;1.50;;;12.00;99.90;;;;;;5078847;28;20031;-87
2022/02/08 15:33:56;;;;;;;5.72;1.65;;;12.00;99.90;;;;;;5051557;28;20031;-83
2022/02/08 15:36:21;;;;;;;5.32;1.35;;;12.00;99.90;;;;;;5027023;28;20082;-82
2022/02/08 15:38:52;;;;;;;7.28;1.38;;;12.00;99.90;;;;;;5042539;28;20032;-86
2022/02/08 15:41:17;;;;;;;14.07;1.40;;;12.00;99.90;;;;;;5043851;28;20122;-86
2022/02/08 15:43:43;;;;;;;9.13;1.30;;;12.00;99.90;;;;;;5059433;28;20029;-86
2022/02/08 15:46:19;;;;;;;6.20;1.20;;;12.00;99.90;;;;;;5059141;28;20017;-86
2022/02/08 15:48:49;;;;;;;6.13;1.20;;;12.00;99.90;;;;;;5067635;28;20031;-86
2022/02/08 15:51:25;;;;;;;6.28;1.27;;;12.00;99.90;;;;;;5042679;28;20354;-89
2022/02/08 16:05:10;;;;;;;9.57;1.90;;;11.90;99.90;;;;;;5076588;28;20554;-86
2022/02/08 16:12:32;;;;;;;6.70;1.85;;;11.90;99.90;;;;;;5076288;28;20384;-86
2022/02/08 16:20:07;;;;;;;9.07;2.65;;;11.90;99.90;;;;;;5096405;28;20513;-86
2022/02/08 16:50:04;;;;;;;7.45;1.20;;;11.70;99.90;;;;;;5062832;28;20040;-85
2022/02/08 16:54:40;;;;;;;8.52;1.40;;;11.70;99.90;;;;;;5078857;28;20098;-85
2022/02/08 16:57:16;;;;;;;4.65;1.75;;;11.70;99.90;;;;;;5048785;28;20028;-86
2022/02/08 16:59:44;;;;;;;8.23;1.20;;;11.70;99.90;;;;;;5078265;28;20097;-86
2022/02/08 17:02:10;;;;;;;7.15;1.58;;;11.70;99.90;;;;;;5094509;28;20134;-85
2022/02/08 17:04:36;;;;;;;6.35;1.52;;;11.70;99.90;;;;;;5095485;28;20024;-85
2022/02/08 17:07:04;;;;;;;6.75;1.50;;;11.70;99.90;;;;;;5077552;28;20453;-85
2022/02/08 17:12:24;;;;;;;9.02;1.70;;;11.70;99.90;;;;;;5096653;28;20039;-85
2022/02/08 17:18:27;;;;;;;8.88;2.72;;;11.70;99.90;;;;;;5080448;28;20039;-86
2022/02/08 17:34:45;;;;;;;5.45;1.80;;;11.60;99.90;;;;;;5080288;28;20031;-84
2022/02/08 17:47:51;;;;;;;14.02;5.60;;;11.60;99.90;;;;;;5058629;28;20041;-86
2022/02/08 17:50:18;;;;;;;16.05;6.90;;;11.60;99.90;;;;;;5040675;28;20040;-86
2022/02/08 17:52:46;;;;;;;17.15;6.68;;;11.60;99.90;;;;;;5056631;28;20032;-85
2022/02/08 17:55:15;;;;;;;12.18;5.10;;;11.60;99.90;;;;;;5040373;28;20423;-86
2022/02/08 17:57:41;;;;;;;10.10;4.70;;;11.60;99.90;;;;;;5061262;28;20032;-84
2022/02/08 18:00:10;;;;;;;11.82;4.90;;;11.60;99.90;;;;;;5085087;28;20035;-86
2022/02/08 18:02:36;;;;;;;17.05;7.05;;;11.60;99.90;;;;;;5073059;28;20024;-86
2022/02/08 18:05:03;;;;;;;10.73;3.72;;;11.60;99.90;;;;;;5074800;28;20032;-86
2022/02/08 18:07:30;;;;;;;13.82;3.22;;;11.60;99.90;;;;;;5058438;28;20468;-85
2022/02/08 18:09:56;;;;;;;11.38;4.32;;;11.50;99.90;;;;;;5059973;28;20081;-85
2022/02/08 18:12:25;;;;;;;12.95;4.60;;;11.50;99.90;;;;;;5076649;28;20020;-85
2022/02/08 18:14:58;;;;;;;9.50;4.47;;;11.50;99.90;;;;;;5094136;28;20024;-85
2022/02/08 18:17:29;;;;;;;12.70;5.40;;;11.50;99.90;;;;;;5076187;28;20540;-85
2022/02/08 18:23:09;;;;;;;11.88;4.85;;;11.50;99.90;;;;;;5054727;28;20032;-85
2022/02/08 19:08:08;;;;;;;5.85;2.60;;;11.30;99.90;;;;;;5073240;28;20044;-86
2022/02/08 19:20:34;;;;;;;7.55;3.58;;;11.20;99.90;;;;;;5073362;28;20075;-86
2022/02/08 19:23:00;;;;;;;7.13;3.40;;;11.20;99.90;;;;;;5055436;28;20468;-86
2022/02/08 19:25:25;;;;;;;8.82;3.45;;;11.20;99.90;;;;;;5055719;28;20123;-85
2022/02/08 19:27:54;;;;;;;11.52;4.10;;;11.20;99.90;;;;;;5055685;28;20465;-86
2022/02/08 19:30:20;;;;;;;13.02;4.15;;;11.20;99.90;;;;;;5056106;28;20123;-87
2022/02/08 19:32:46;;;;;;;7.93;4.00;;;11.10;99.90;;;;;;5055887;28;20063;-86
2022/02/08 19:35:13;;;;;;;11.90;4.55;;;11.20;99.90;;;;;;5051064;28;20032;-85
2022/02/08 19:37:39;;;;;;;6.53;4.07;;;11.20;99.90;;;;;;5077662;28;20020;-86
2022/02/08 19:40:07;;;;;;;8.38;4.20;;;11.20;99.90;;;;;;5077157;28;20028;-86
2022/02/08 19:42:34;;;;;;;11.30;5.05;;;11.10;99.90;;;;;;5044123;28;20119;-84
2022/02/08 19:45:10;;;;;;;12.07;5.18;;;11.10;99.90;;;;;;5059635;28;20043;-87
2022/02/08 19:47:38;;;;;;;7.05;4.60;;;11.20;99.90;;;;;;5053319;28;20025;-86
2022/02/08 19:50:05;;;;;;;8.07;4.07;;;11.10;99.90;;;;;;5056540;28;20029;-86
2022/02/08 19:52:32;;;;;;;8.73;4.78;;;11.20;99.90;;;;;;5038432;28;20024;-86
2022/02/08 19:57:43;;;;;;;9.48;5.03;;;11.10;99.90;;;;;;5072887;28;20040;-86
2022/02/08 20:00:15;;;;;;;10.90;4.53;;;11.10;99.90;;;;;;5052401;28;20435;-86
2022/02/08 20:02:46;;;;;;;10.63;5.40;;;11.10;99.90;;;;;;5055597;28;20039;-86
2022/02/08 20:05:14;;;;;;;11.65;5.22;;;11.10;99.90;;;;;;5040375;28;20024;-86
2022/02/08 20:07:40;;;;;;;10.25;5.25;;;11.10;99.90;;;;;;5056081;28;20096;-87
2022/02/08 20:10:07;;;;;;;10.98;5.85;;;11.10;99.90;;;;;;5058971;28;20024;-86
2022/02/08 20:12:33;;;;;;;10.27;5.95;;;11.10;99.90;;;;;;5043860;28;20070;-85
2022/02/08 20:14:58;;;;;;;10.10;6.10;;;11.10;99.90;;;;;;5044779;28;20028;-85
2022/02/08 20:17:25;;;;;;;10.75;6.00;;;11.00;99.90;;;;;;5078174;28;20066;-85
2022/02/08 20:19:53;;;;;;;12.35;5.90;;;11.10;99.90;;;;;;5059529;28;20495;-86
2022/02/08 20:22:20;;;;;;;10.27;6.03;;;11.10;99.90;;;;;;5043868;28;20039;-85
2022/02/08 20:24:49;;;;;;;12.82;6.30;;;11.10;99.90;;;;;;5026424;28;20039;-87
2022/02/08 20:27:36;;;;;;;12.68;5.95;;;11.00;99.90;;;;;;5060246;28;20036;-85
2022/02/08 20:30:03;;;;;;;11.52;6.10;;;11.00;99.90;;;;;;5062882;28;20029;-86
2022/02/08 20:32:29;;;;;;;11.57;5.80;;;11.00;99.90;;;;;;5042318;28;20021;-85
2022/02/08 20:34:54;;;;;;;10.07;5.75;;;11.00;99.90;;;;;;5042419;28;20443;-86
2022/02/08 20:37:22;;;;;;;10.18;6.00;;;11.00;99.90;;;;;;5042601;28;20055;-86
2022/02/08 20:39:47;;;;;;;11.38;5.72;;;11.00;99.90;;;;;;5076502;28;20032;-87
2022/02/08 20:42:13;;;;;;;10.50;5.55;;;11.00;99.90;;;;;;5076733;28;20112;-85